sensor_id;sensor_type;location;lat;lon;timestamp;temperature;humidity
22558;DHT22;11445;53.816;8.902;2022-09-01T00:02:12;15.70;99.90
22558;DHT22;11445;53.816;8.902;2022-09-01T00:04:41;15.70;99.90
22558;DHT22;11445;53.816;8.902;2022-09-01T00:07:10;15.80;99.90
22558;DHT22;11445;53.816;8.902;2022-09-01T00:09:37;15.80;99.90
22558;DHT22;11445;53.816;8.902;2022-09-01T00:12:07;15.80;99.90
22558;DHT22;11445;53.816;8.902;2022-09-01T00:14:38;15.80;99.90
22558;DHT22;11445;53.816;8.902;2022-09-01T00:17:08;15.80;99.90
22558;DHT22;11445;53.816;8.902;2022-09-01T00:19:36;15.80;99.90
22558;DHT22;11445;53.816;8.902;2022-09-01T00:22:05;15.90;99.90
22558;DHT22;11445;53.816;8.902;2022-09-01T00:24:32;15.90;99.90
22558;DHT22;11445;53.816;8.902;2022-09-01T00:26:59;15.80;99.90
22558;DHT22;11445;53.816;8.902;2022-09-01T00:29:26;15.80;99.90
22558;DHT22;11445;53.816;8.902;2022-09-01T00:31:54;15.80;99.90
22558;DHT22;11445;53.816;8.902;2022-09-01T00:34:21;15.80;99.90
22558;DHT22;11445;53.816;8.902;2022-09-01T00:36:48;15.80;99.90
22558;DHT22;11445;53.816;8.902;2022-09-01T00:39:16;15.80;99.90
22558;DHT22;11445;53.816;8.902;2022-09-01T00:41:43;15.70;99.90
22558;DHT22;11445;53.816;8.902;2022-09-01T00:44:14;15.80;99.90
22558;DHT22;11445;53.816;8.902;2022-09-01T00:46:43;15.70;99.90
22558;DHT22;11445;53.816;8.902;2022-09-01T00:49:15;15.80;99.90
22558;DHT22;11445;53.816;8.902;2022-09-01T00:51:46;15.70;99.90
22558;DHT22;11445;53.816;8.902;2022-09-01T00:54:17;15.70;99.90
22558;DHT22;11445;53.816;8.902;2022-09-01T00:56:46;15.70;99.90
22558;DHT22;11445;53.816;8.902;2022-09-01T00:59:16;15.70;99.90
22558;DHT22;11445;53.816;8.902;2022-09-01T01:01:43;15.60;99.90
22558;DHT22;11445;53.816;8.902;2022-09-01T01:04:12;15.60;99.90
22558;DHT22;11445;53.816;8.902;2022-09-01T01:06:41;15.60;99.90
22558;DHT22;11445;53.816;8.902;2022-09-01T01:09:15;15.60;99.90
22558;DHT22;11445;53.816;8.902;2022-09-01T01:11:43;15.50;99.90
22558;DHT22;11445;53.816;8.902;2022-09-01T01:14:11;15.50;99.90
22558;DHT22;11445;53.816;8.902;2022-09-01T01:16:41;15.50;99.90
22558;DHT22;11445;53.816;8.902;2022-09-01T01:19:14;15.40;99.90
22558;DHT22;11445;53.816;8.902;2022-09-01T01:22:07;15.40;99.90
22558;DHT22;11445;53.816;8.902;2022-09-01T01:24:54;15.40;99.90
22558;DHT22;11445;53.816;8.902;2022-09-01T01:27:21;15.40;99.90
22558;DHT22;11445;53.816;8.902;2022-09-01T01:29:48;15.50;99.90
22558;DHT22;11445;53.816;8.902;2022-09-01T01:32:17;15.50;99.90
22558;DHT22;11445;53.816;8.902;2022-09-01T01:34:45;15.40;99.90
22558;DHT22;11445;53.816;8.902;2022-09-01T01:37:13;15.40;99.90
22558;DHT22;11445;53.816;8.902;2022-09-01T01:39:40;15.40;99.90
22558;DHT22;11445;53.816;8.902;2022-09-01T01:42:11;15.40;99.90
22558;DHT22;11445;53.816;8.902;2022-09-01T01:44:38;15.40;99.90
22558;DHT22;11445;53.816;8.902;2022-09-01T01:47:08;15.40;99.90
22558;DHT22;11445;53.816;8.902;2022-09-01T01:49:38;15.50;99.90
22558;DHT22;11445;53.816;8.902;2022-09-01T01:52:09;15.50;99.90
22558;DHT22;11445;53.816;8.902;2022-09-01T01:54:41;15.50;99.90
22558;DHT22;11445;53.816;8.902;2022-09-01T01:57:12;15.50;99.90
22558;DHT22;11445;53.816;8.902;2022-09-01T01:59:42;15.50;99.90
22558;DHT22;11445;53.816;8.902;2022-09-01T02:02:09;15.50;99.90
22558;DHT22;11445;53.816;8.902;2022-09-01T02:04:38;15.50;99.90
22558;DHT22;11445;53.816;8.902;2022-09-01T02:07:09;15.50;99.90
22558;DHT22;11445;53.816;8.902;2022-09-01T02:09:37;15.50;99.90
22558;DHT22;11445;53.816;8.902;2022-09-01T02:12:06;15.50;99.90
22558;DHT22;11445;53.816;8.902;2022-09-01T02:14:35;15.60;99.90
22558;DHT22;11445;53.816;8.902;2022-09-01T02:17:03;15.60;99.90
22558;DHT22;11445;53.816;8.902;2022-09-01T02:19:32;15.60;99.90
22558;DHT22;11445;53.816;8.902;2022-09-01T02:22:01;15.60;99.90
22558;DHT22;11445;53.816;8.902;2022-09-01T02:24:28;15.60;99.90
22558;DHT22;11445;53.816;8.902;2022-09-01T02:26:57;15.60;99.90
22558;DHT22;11445;53.816;8.902;2022-09-01T02:29:25;15.60;99.90
22558;DHT22;11445;53.816;8.902;2022-09-01T02:31:55;15.60;99.90
22558;DHT22;11445;53.816;8.902;2022-09-01T02:34:24;15.60;99.90
22558;DHT22;11445;53.816;8.902;2022-09-01T02:36:54;15.60;99.90
22558;DHT22;11445;53.816;8.902;2022-09-01T02:39:23;15.60;99.90
22558;DHT22;11445;53.816;8.902;2022-09-01T02:41:51;15.60;99.90
22558;DHT22;11445;53.816;8.902;2022-09-01T02:44:18;15.60;99.90
22558;DHT22;11445;53.816;8.902;2022-09-01T02:46:48;15.60;99.90
22558;DHT22;11445;53.816;8.902;2022-09-01T02:49:18;15.60;99.90
22558;DHT22;11445;53.816;8.902;2022-09-01T02:51:54;15.60;99.90
22558;DHT22;11445;53.816;8.902;2022-09-01T02:54:26;15.60;99.90
22558;DHT22;11445;53.816;8.902;2022-09-01T02:56:54;15.60;99.90
22558;DHT22;11445;53.816;8.902;2022-09-01T02:59:23;15.60;99.90
22558;DHT22;11445;53.816;8.902;2022-09-01T03:01:52;15.50;99.90
22558;DHT22;11445;53.816;8.902;2022-09-01T03:04:22;15.50;99.90
22558;DHT22;11445;53.816;8.902;2022-09-01T03:06:49;15.50;99.90
22558;DHT22;11445;53.816;8.902;2022-09-01T03:09:19;15.50;99.90
22558;DHT22;11445;53.816;8.902;2022-09-01T03:11:48;15.40;99.90
22558;DHT22;11445;53.816;8.902;2022-09-01T03:14:15;15.40;99.90
22558;DHT22;11445;53.816;8.902;2022-09-01T03:16:43;15.30;99.90
22558;DHT22;11445;53.816;8.902;2022-09-01T03:19:10;15.30;99.90
22558;DHT22;11445;53.816;8.902;2022-09-01T03:21:42;15.30;99.90
22558;DHT22;11445;53.816;8.902;2022-09-01T03:24:12;15.20;99.90
22558;DHT22;11445;53.816;8.902;2022-09-01T03:26:42;15.20;99.90
22558;DHT22;11445;53.816;8.902;2022-09-01T03:29:09;15.10;99.90
22558;DHT22;11445;53.816;8.902;2022-09-01T03:31:37;15.10;99.90
22558;DHT22;11445;53.816;8.902;2022-09-01T03:34:04;15.00;99.90
22558;DHT22;11445;53.816;8.902;2022-09-01T03:36:36;15.00;99.90
22558;DHT22;11445;53.816;8.902;2022-09-01T03:39:05;14.90;99.90
22558;DHT22;11445;53.816;8.902;2022-09-01T03:41:34;14.90;99.90
22558;DHT22;11445;53.816;8.902;2022-09-01T03:44:02;14.90;99.90
22558;DHT22;11445;53.816;8.902;2022-09-01T03:46:29;14.80;99.90
22558;DHT22;11445;53.816;8.902;2022-09-01T03:48:59;14.80;99.90
22558;DHT22;11445;53.816;8.902;2022-09-01T03:51:26;14.70;99.90
22558;DHT22;11445;53.816;8.902;2022-09-01T03:53:56;14.70;99.90
22558;DHT22;11445;53.816;8.902;2022-09-01T03:56:26;14.70;99.90
22558;DHT22;11445;53.816;8.902;2022-09-01T03:58:55;14.70;99.90
22558;DHT22;11445;53.816;8.902;2022-09-01T04:01:23;14.70;99.90
22558;DHT22;11445;53.816;8.902;2022-09-01T04:03:50;14.60;99.90
22558;DHT22;11445;53.816;8.902;2022-09-01T04:06:18;14.60;99.90
22558;DHT22;11445;53.816;8.902;2022-09-01T04:08:48;14.50;99.90
22558;DHT22;11445;53.816;8.902;2022-09-01T04:11:20;14.50;99.90
22558;DHT22;11445;53.816;8.902;2022-09-01T04:13:50;14.40;99.90
22558;DHT22;11445;53.816;8.902;2022-09-01T04:16:19;14.50;99.90
22558;DHT22;11445;53.816;8.902;2022-09-01T04:19:04;14.50;99.90
22558;DHT22;11445;53.816;8.902;2022-09-01T04:21:41;14.40;99.90
22558;DHT22;11445;53.816;8.902;2022-09-01T04:24:09;14.40;99.90
22558;DHT22;11445;53.816;8.902;2022-09-01T04:26:38;14.40;99.90
22558;DHT22;11445;53.816;8.902;2022-09-01T04:29:07;14.40;99.90
22558;DHT22;11445;53.816;8.902;2022-09-01T04:31:36;14.50;99.90
22558;DHT22;11445;53.816;8.902;2022-09-01T04:34:05;14.40;99.90
22558;DHT22;11445;53.816;8.902;2022-09-01T04:36:40;14.40;99.90
22558;DHT22;11445;53.816;8.902;2022-09-01T04:39:08;14.40;99.90
22558;DHT22;11445;53.816;8.902;2022-09-01T04:41:38;14.40;99.90
22558;DHT22;11445;53.816;8.902;2022-09-01T04:44:08;14.40;99.90
22558;DHT22;11445;53.816;8.902;2022-09-01T04:46:37;14.40;99.90
22558;DHT22;11445;53.816;8.902;2022-09-01T04:49:08;14.40;99.90
22558;DHT22;11445;53.816;8.902;2022-09-01T04:51:37;14.40;99.90
22558;DHT22;11445;53.816;8.902;2022-09-01T04:54:05;14.40;99.90
22558;DHT22;11445;53.816;8.902;2022-09-01T04:56:38;14.30;99.90
22558;DHT22;11445;53.816;8.902;2022-09-01T04:59:06;14.40;99.90
22558;DHT22;11445;53.816;8.902;2022-09-01T05:01:36;14.30;99.90
22558;DHT22;11445;53.816;8.902;2022-09-01T05:04:08;14.30;99.90
22558;DHT22;11445;53.816;8.902;2022-09-01T05:06:40;14.40;99.90
22558;DHT22;11445;53.816;8.902;2022-09-01T05:09:08;14.40;99.90
22558;DHT22;11445;53.816;8.902;2022-09-01T05:11:36;14.40;99.90
22558;DHT22;11445;53.816;8.902;2022-09-01T05:14:04;14.40;99.90
22558;DHT22;11445;53.816;8.902;2022-09-01T05:16:34;14.40;99.90
22558;DHT22;11445;53.816;8.902;2022-09-01T05:19:06;14.50;99.90
22558;DHT22;11445;53.816;8.902;2022-09-01T05:21:39;14.50;99.90
22558;DHT22;11445;53.816;8.902;2022-09-01T05:24:06;14.50;99.90
22558;DHT22;11445;53.816;8.902;2022-09-01T05:26:33;14.50;99.90
22558;DHT22;11445;53.816;8.902;2022-09-01T05:29:03;14.60;99.90
22558;DHT22;11445;53.816;8.902;2022-09-01T05:31:36;14.60;99.90
22558;DHT22;11445;53.816;8.902;2022-09-01T05:34:04;14.60;99.90
22558;DHT22;11445;53.816;8.902;2022-09-01T05:36:35;14.70;99.90
22558;DHT22;11445;53.816;8.902;2022-09-01T05:39:03;14.70;99.90
22558;DHT22;11445;53.816;8.902;2022-09-01T05:41:31;14.70;99.90
22558;DHT22;11445;53.816;8.902;2022-09-01T05:44:01;14.80;99.90
22558;DHT22;11445;53.816;8.902;2022-09-01T05:46:33;14.90;99.90
22558;DHT22;11445;53.816;8.902;2022-09-01T05:49:02;14.90;99.90
22558;DHT22;11445;53.816;8.902;2022-09-01T05:51:31;15.00;99.90
22558;DHT22;11445;53.816;8.902;2022-09-01T05:54:02;15.20;99.90
22558;DHT22;11445;53.816;8.902;2022-09-01T05:56:32;15.30;99.90
22558;DHT22;11445;53.816;8.902;2022-09-01T05:59:03;15.40;99.90
22558;DHT22;11445;53.816;8.902;2022-09-01T06:01:30;15.40;99.90
22558;DHT22;11445;53.816;8.902;2022-09-01T06:03:59;15.50;99.90
22558;DHT22;11445;53.816;8.902;2022-09-01T06:06:36;15.50;99.90
22558;DHT22;11445;53.816;8.902;2022-09-01T06:09:05;15.50;99.90
22558;DHT22;11445;53.816;8.902;2022-09-01T06:11:33;15.50;99.90
22558;DHT22;11445;53.816;8.902;2022-09-01T06:14:00;15.60;99.90
22558;DHT22;11445;53.816;8.902;2022-09-01T06:16:28;15.60;99.90
22558;DHT22;11445;53.816;8.902;2022-09-01T06:18:56;15.70;99.90
22558;DHT22;11445;53.816;8.902;2022-09-01T06:21:25;15.70;99.90
22558;DHT22;11445;53.816;8.902;2022-09-01T06:23:55;15.80;99.90
22558;DHT22;11445;53.816;8.902;2022-09-01T06:26:25;15.80;99.90
22558;DHT22;11445;53.816;8.902;2022-09-01T06:28:54;15.80;99.90
22558;DHT22;11445;53.816;8.902;2022-09-01T06:31:23;15.90;99.90
22558;DHT22;11445;53.816;8.902;2022-09-01T06:33:50;16.10;99.90
22558;DHT22;11445;53.816;8.902;2022-09-01T06:36:19;16.10;99.90
22558;DHT22;11445;53.816;8.902;2022-09-01T06:38:47;16.20;99.90
22558;DHT22;11445;53.816;8.902;2022-09-01T06:41:18;16.30;99.90
22558;DHT22;11445;53.816;8.902;2022-09-01T06:43:45;16.30;99.90
22558;DHT22;11445;53.816;8.902;2022-09-01T06:46:13;16.40;99.90
22558;DHT22;11445;53.816;8.902;2022-09-01T06:48:40;16.40;99.90
22558;DHT22;11445;53.816;8.902;2022-09-01T06:51:11;16.40;99.90
22558;DHT22;11445;53.816;8.902;2022-09-01T06:53:39;16.40;99.90
22558;DHT22;11445;53.816;8.902;2022-09-01T06:56:06;16.50;99.90
22558;DHT22;11445;53.816;8.902;2022-09-01T06:58:36;16.50;99.90
22558;DHT22;11445;53.816;8.902;2022-09-01T07:01:06;16.50;99.90
22558;DHT22;11445;53.816;8.902;2022-09-01T07:03:39;16.60;99.90
22558;DHT22;11445;53.816;8.902;2022-09-01T07:06:06;16.60;99.90
22558;DHT22;11445;53.816;8.902;2022-09-01T07:08:35;16.70;99.90
22558;DHT22;11445;53.816;8.902;2022-09-01T07:11:04;16.80;99.90
22558;DHT22;11445;53.816;8.902;2022-09-01T07:13:33;16.80;99.90
22558;DHT22;11445;53.816;8.902;2022-09-01T07:16:03;16.90;99.90
22558;DHT22;11445;53.816;8.902;2022-09-01T07:18:32;16.90;99.90
22558;DHT22;11445;53.816;8.902;2022-09-01T07:20:59;17.00;99.90
22558;DHT22;11445;53.816;8.902;2022-09-01T07:23:31;17.10;99.90
22558;DHT22;11445;53.816;8.902;2022-09-01T07:25:59;17.10;99.90
22558;DHT22;11445;53.816;8.902;2022-09-01T07:28:26;17.20;99.90
22558;DHT22;11445;53.816;8.902;2022-09-01T07:30:57;17.30;99.90
22558;DHT22;11445;53.816;8.902;2022-09-01T07:33:26;17.30;99.90
22558;DHT22;11445;53.816;8.902;2022-09-01T07:35:55;17.40;99.90
22558;DHT22;11445;53.816;8.902;2022-09-01T07:38:22;17.50;99.90
22558;DHT22;11445;53.816;8.902;2022-09-01T07:40:50;17.50;99.90
22558;DHT22;11445;53.816;8.902;2022-09-01T07:43:21;17.50;99.90
22558;DHT22;11445;53.816;8.902;2022-09-01T07:45:50;17.60;99.90
22558;DHT22;11445;53.816;8.902;2022-09-01T07:48:19;17.60;99.90
22558;DHT22;11445;53.816;8.902;2022-09-01T07:50:49;17.70;99.90
22558;DHT22;11445;53.816;8.902;2022-09-01T07:53:19;17.70;99.90
22558;DHT22;11445;53.816;8.902;2022-09-01T07:55:48;17.80;99.90
22558;DHT22;11445;53.816;8.902;2022-09-01T07:58:16;17.90;99.90
22558;DHT22;11445;53.816;8.902;2022-09-01T08:00:43;18.00;99.90
22558;DHT22;11445;53.816;8.902;2022-09-01T08:03:11;18.00;99.90
22558;DHT22;11445;53.816;8.902;2022-09-01T08:05:38;18.10;99.90
22558;DHT22;11445;53.816;8.902;2022-09-01T08:08:06;18.10;99.90
22558;DHT22;11445;53.816;8.902;2022-09-01T08:10:37;18.30;99.90
22558;DHT22;11445;53.816;8.902;2022-09-01T08:13:04;18.50;99.90
22558;DHT22;11445;53.816;8.902;2022-09-01T08:15:31;18.60;99.90
22558;DHT22;11445;53.816;8.902;2022-09-01T08:17:58;18.70;99.90
22558;DHT22;11445;53.816;8.902;2022-09-01T08:20:25;18.70;99.90
22558;DHT22;11445;53.816;8.902;2022-09-01T08:22:52;18.70;99.90
22558;DHT22;11445;53.816;8.902;2022-09-01T08:25:21;18.80;99.90
22558;DHT22;11445;53.816;8.902;2022-09-01T08:27:48;18.80;99.90
22558;DHT22;11445;53.816;8.902;2022-09-01T08:30:15;18.90;99.90
22558;DHT22;11445;53.816;8.902;2022-09-01T08:32:42;18.90;99.90
22558;DHT22;11445;53.816;8.902;2022-09-01T08:35:10;19.00;99.90
22558;DHT22;11445;53.816;8.902;2022-09-01T08:37:38;19.00;99.90
22558;DHT22;11445;53.816;8.902;2022-09-01T08:40:07;19.00;99.90
22558;DHT22;11445;53.816;8.902;2022-09-01T08:42:46;19.10;99.90
22558;DHT22;11445;53.816;8.902;2022-09-01T08:45:22;19.10;99.90
22558;DHT22;11445;53.816;8.902;2022-09-01T08:47:51;19.30;99.90
22558;DHT22;11445;53.816;8.902;2022-09-01T08:50:20;19.30;99.90
22558;DHT22;11445;53.816;8.902;2022-09-01T08:52:54;19.40;99.90
22558;DHT22;11445;53.816;8.902;2022-09-01T08:55:27;19.40;99.90
22558;DHT22;11445;53.816;8.902;2022-09-01T08:57:58;19.50;99.90
22558;DHT22;11445;53.816;8.902;2022-09-01T09:00:27;19.50;99.90
22558;DHT22;11445;53.816;8.902;2022-09-01T09:03:04;19.60;99.90
22558;DHT22;11445;53.816;8.902;2022-09-01T09:05:41;19.70;99.90
22558;DHT22;11445;53.816;8.902;2022-09-01T09:08:34;19.70;99.90
22558;DHT22;11445;53.816;8.902;2022-09-01T09:11:10;19.80;99.90
22558;DHT22;11445;53.816;8.902;2022-09-01T09:13:54;19.90;99.90
22558;DHT22;11445;53.816;8.902;2022-09-01T09:16:26;20.00;99.90
22558;DHT22;11445;53.816;8.902;2022-09-01T09:18:56;20.00;99.90
22558;DHT22;11445;53.816;8.902;2022-09-01T09:21:27;20.10;99.90
22558;DHT22;11445;53.816;8.902;2022-09-01T09:23:59;20.20;99.90
22558;DHT22;11445;53.816;8.902;2022-09-01T09:26:31;20.20;99.90
22558;DHT22;11445;53.816;8.902;2022-09-01T09:28:59;20.30;99.90
22558;DHT22;11445;53.816;8.902;2022-09-01T09:31:29;20.30;99.90
22558;DHT22;11445;53.816;8.902;2022-09-01T09:33:56;20.30;99.90
22558;DHT22;11445;53.816;8.902;2022-09-01T09:36:31;20.40;99.90
22558;DHT22;11445;53.816;8.902;2022-09-01T09:39:07;20.40;99.90
22558;DHT22;11445;53.816;8.902;2022-09-01T09:41:35;20.50;99.90
22558;DHT22;11445;53.816;8.902;2022-09-01T09:44:14;20.50;99.90
22558;DHT22;11445;53.816;8.902;2022-09-01T09:46:43;20.60;99.90
22558;DHT22;11445;53.816;8.902;2022-09-01T09:49:15;20.70;99.90
22558;DHT22;11445;53.816;8.902;2022-09-01T09:51:49;20.70;99.90
22558;DHT22;11445;53.816;8.902;2022-09-01T09:54:22;20.80;99.90
22558;DHT22;11445;53.816;8.902;2022-09-01T09:57:01;20.80;99.90
22558;DHT22;11445;53.816;8.902;2022-09-01T09:59:32;20.90;99.90
22558;DHT22;11445;53.816;8.902;2022-09-01T10:02:21;21.00;99.90
22558;DHT22;11445;53.816;8.902;2022-09-01T10:04:50;21.10;99.90
22558;DHT22;11445;53.816;8.902;2022-09-01T10:07:27;21.10;99.90
22558;DHT22;11445;53.816;8.902;2022-09-01T10:09:56;21.20;99.90
22558;DHT22;11445;53.816;8.902;2022-09-01T10:12:25;21.30;99.90
22558;DHT22;11445;53.816;8.902;2022-09-01T10:14:58;21.30;99.90
22558;DHT22;11445;53.816;8.902;2022-09-01T10:17:29;21.20;99.90
22558;DHT22;11445;53.816;8.902;2022-09-01T10:20:02;21.20;99.90
22558;DHT22;11445;53.816;8.902;2022-09-01T10:22:32;21.30;99.90
22558;DHT22;11445;53.816;8.902;2022-09-01T10:25:01;21.30;99.90
22558;DHT22;11445;53.816;8.902;2022-09-01T10:27:30;21.40;99.90
22558;DHT22;11445;53.816;8.902;2022-09-01T10:30:06;21.50;99.90
22558;DHT22;11445;53.816;8.902;2022-09-01T10:32:37;21.50;99.90
22558;DHT22;11445;53.816;8.902;2022-09-01T10:35:07;21.60;99.90
22558;DHT22;11445;53.816;8.902;2022-09-01T10:37:36;21.70;99.90
22558;DHT22;11445;53.816;8.902;2022-09-01T10:40:12;21.80;99.90
22558;DHT22;11445;53.816;8.902;2022-09-01T10:42:40;21.80;99.90
22558;DHT22;11445;53.816;8.902;2022-09-01T10:45:18;21.80;99.90
22558;DHT22;11445;53.816;8.902;2022-09-01T10:47:47;21.70;99.90
22558;DHT22;11445;53.816;8.902;2022-09-01T10:50:27;21.60;99.90
22558;DHT22;11445;53.816;8.902;2022-09-01T10:53:03;21.50;99.90
22558;DHT22;11445;53.816;8.902;2022-09-01T10:55:37;21.50;99.90
22558;DHT22;11445;53.816;8.902;2022-09-01T10:58:26;21.40;99.90
22558;DHT22;11445;53.816;8.902;2022-09-01T11:00:56;21.40;99.90
22558;DHT22;11445;53.816;8.902;2022-09-01T11:03:44;21.40;99.90
22558;DHT22;11445;53.816;8.902;2022-09-01T11:06:33;21.60;99.90
22558;DHT22;11445;53.816;8.902;2022-09-01T11:09:03;21.80;99.90
22558;DHT22;11445;53.816;8.902;2022-09-01T11:11:36;21.90;99.90
22558;DHT22;11445;53.816;8.902;2022-09-01T11:14:16;21.90;99.90
22558;DHT22;11445;53.816;8.902;2022-09-01T11:17:09;21.90;99.90
22558;DHT22;11445;53.816;8.902;2022-09-01T11:19:38;22.00;99.90
22558;DHT22;11445;53.816;8.902;2022-09-01T11:22:15;21.90;99.90
22558;DHT22;11445;53.816;8.902;2022-09-01T11:24:50;21.80;99.90
22558;DHT22;11445;53.816;8.902;2022-09-01T11:30:22;21.60;99.90
22558;DHT22;11445;53.816;8.902;2022-09-01T11:32:57;21.40;99.90
22558;DHT22;11445;53.816;8.902;2022-09-01T11:35:27;21.30;99.90
22558;DHT22;11445;53.816;8.902;2022-09-01T11:37:56;21.20;99.90
22558;DHT22;11445;53.816;8.902;2022-09-01T11:40:31;21.20;99.90
22558;DHT22;11445;53.816;8.902;2022-09-01T11:43:03;21.30;99.90
22558;DHT22;11445;53.816;8.902;2022-09-01T11:45:32;21.50;99.90
22558;DHT22;11445;53.816;8.902;2022-09-01T11:48:08;21.60;99.90
22558;DHT22;11445;53.816;8.902;2022-09-01T11:50:39;21.80;99.90
22558;DHT22;11445;53.816;8.902;2022-09-01T11:53:09;21.90;99.90
22558;DHT22;11445;53.816;8.902;2022-09-01T11:55:39;21.90;99.90
22558;DHT22;11445;53.816;8.902;2022-09-01T11:58:09;22.00;99.90
22558;DHT22;11445;53.816;8.902;2022-09-01T12:00:38;22.10;99.90
22558;DHT22;11445;53.816;8.902;2022-09-01T12:03:19;22.20;99.90
22558;DHT22;11445;53.816;8.902;2022-09-01T12:05:51;22.20;99.90
22558;DHT22;11445;53.816;8.902;2022-09-01T12:08:19;22.20;99.90
22558;DHT22;11445;53.816;8.902;2022-09-01T12:10:47;22.20;99.90
22558;DHT22;11445;53.816;8.902;2022-09-01T12:13:19;22.20;99.90
22558;DHT22;11445;53.816;8.902;2022-09-01T12:15:53;22.20;99.90
22558;DHT22;11445;53.816;8.902;2022-09-01T12:18:25;22.10;99.90
22558;DHT22;11445;53.816;8.902;2022-09-01T12:20:54;22.10;99.90
22558;DHT22;11445;53.816;8.902;2022-09-01T12:23:24;22.20;99.90
22558;DHT22;11445;53.816;8.902;2022-09-01T12:25:53;22.40;99.90
22558;DHT22;11445;53.816;8.902;2022-09-01T12:28:22;22.60;99.90
22558;DHT22;11445;53.816;8.902;2022-09-01T12:30:49;22.80;99.90
22558;DHT22;11445;53.816;8.902;2022-09-01T12:33:18;22.90;99.90
22558;DHT22;11445;53.816;8.902;2022-09-01T12:35:47;23.00;99.90
22558;DHT22;11445;53.816;8.902;2022-09-01T12:38:24;23.20;99.90
22558;DHT22;11445;53.816;8.902;2022-09-01T12:40:55;23.20;99.90
22558;DHT22;11445;53.816;8.902;2022-09-01T12:43:28;23.10;99.90
22558;DHT22;11445;53.816;8.902;2022-09-01T12:45:56;22.80;99.90
22558;DHT22;11445;53.816;8.902;2022-09-01T12:48:27;22.50;99.90
22558;DHT22;11445;53.816;8.902;2022-09-01T12:50:58;22.30;99.90
22558;DHT22;11445;53.816;8.902;2022-09-01T12:53:28;22.10;99.90
22558;DHT22;11445;53.816;8.902;2022-09-01T12:56:16;22.10;99.90
22558;DHT22;11445;53.816;8.902;2022-09-01T12:58:48;22.00;99.90
22558;DHT22;11445;53.816;8.902;2022-09-01T13:01:37;22.00;99.90
22558;DHT22;11445;53.816;8.902;2022-09-01T13:04:29;22.10;99.90
22558;DHT22;11445;53.816;8.902;2022-09-01T13:07:03;22.00;99.90
22558;DHT22;11445;53.816;8.902;2022-09-01T13:09:30;22.00;99.90
22558;DHT22;11445;53.816;8.902;2022-09-01T13:12:15;22.00;99.90
22558;DHT22;11445;53.816;8.902;2022-09-01T13:14:42;22.10;99.90
22558;DHT22;11445;53.816;8.902;2022-09-01T13:17:10;22.10;99.90
22558;DHT22;11445;53.816;8.902;2022-09-01T13:19:37;22.10;99.90
22558;DHT22;11445;53.816;8.902;2022-09-01T13:22:06;22.10;99.90
22558;DHT22;11445;53.816;8.902;2022-09-01T13:24:33;22.00;99.90
22558;DHT22;11445;53.816;8.902;2022-09-01T13:27:00;21.90;99.90
22558;DHT22;11445;53.816;8.902;2022-09-01T13:29:27;21.80;99.90
22558;DHT22;11445;53.816;8.902;2022-09-01T13:31:54;21.80;99.90
22558;DHT22;11445;53.816;8.902;2022-09-01T13:34:22;21.70;99.90
22558;DHT22;11445;53.816;8.902;2022-09-01T13:36:48;21.70;99.90
22558;DHT22;11445;53.816;8.902;2022-09-01T13:39:17;21.60;99.90
22558;DHT22;11445;53.816;8.902;2022-09-01T13:41:45;21.50;99.90
22558;DHT22;11445;53.816;8.902;2022-09-01T13:44:12;21.50;99.90
22558;DHT22;11445;53.816;8.902;2022-09-01T13:46:40;21.60;99.90
22558;DHT22;11445;53.816;8.902;2022-09-01T13:49:07;21.50;99.90
22558;DHT22;11445;53.816;8.902;2022-09-01T13:51:34;21.50;99.90
22558;DHT22;11445;53.816;8.902;2022-09-01T13:54:02;21.40;99.90
22558;DHT22;11445;53.816;8.902;2022-09-01T13:56:30;21.40;99.90
22558;DHT22;11445;53.816;8.902;2022-09-01T13:58:57;21.40;99.90
22558;DHT22;11445;53.816;8.902;2022-09-01T14:01:25;21.30;99.90
22558;DHT22;11445;53.816;8.902;2022-09-01T14:03:52;21.30;99.90
22558;DHT22;11445;53.816;8.902;2022-09-01T14:06:19;21.20;99.90
22558;DHT22;11445;53.816;8.902;2022-09-01T14:08:46;21.30;99.90
22558;DHT22;11445;53.816;8.902;2022-09-01T14:11:16;21.40;99.90
22558;DHT22;11445;53.816;8.902;2022-09-01T14:13:46;21.60;99.90
22558;DHT22;11445;53.816;8.902;2022-09-01T14:16:13;21.80;99.90
22558;DHT22;11445;53.816;8.902;2022-09-01T14:18:40;22.00;99.90
22558;DHT22;11445;53.816;8.902;2022-09-01T14:21:12;22.30;99.90
22558;DHT22;11445;53.816;8.902;2022-09-01T14:23:40;22.50;99.90
22558;DHT22;11445;53.816;8.902;2022-09-01T14:26:08;22.50;99.90
22558;DHT22;11445;53.816;8.902;2022-09-01T14:28:37;22.50;99.90
22558;DHT22;11445;53.816;8.902;2022-09-01T14:31:09;22.40;99.90
22558;DHT22;11445;53.816;8.902;2022-09-01T14:33:37;22.30;99.90
22558;DHT22;11445;53.816;8.902;2022-09-01T14:36:05;22.20;99.90
22558;DHT22;11445;53.816;8.902;2022-09-01T14:38:32;22.20;99.90
22558;DHT22;11445;53.816;8.902;2022-09-01T14:41:00;22.10;99.90
22558;DHT22;11445;53.816;8.902;2022-09-01T14:43:28;22.00;99.90
22558;DHT22;11445;53.816;8.902;2022-09-01T14:46:04;21.90;99.90
22558;DHT22;11445;53.816;8.902;2022-09-01T14:48:35;21.90;99.90
22558;DHT22;11445;53.816;8.902;2022-09-01T14:51:03;21.90;99.90
22558;DHT22;11445;53.816;8.902;2022-09-01T14:53:31;21.90;99.90
22558;DHT22;11445;53.816;8.902;2022-09-01T14:55:58;22.00;99.90
22558;DHT22;11445;53.816;8.902;2022-09-01T14:58:27;22.10;99.90
22558;DHT22;11445;53.816;8.902;2022-09-01T15:00:54;22.20;99.90
22558;DHT22;11445;53.816;8.902;2022-09-01T15:03:22;22.30;99.90
22558;DHT22;11445;53.816;8.902;2022-09-01T15:05:52;22.30;99.90
22558;DHT22;11445;53.816;8.902;2022-09-01T15:08:19;22.40;99.90
22558;DHT22;11445;53.816;8.902;2022-09-01T15:10:47;22.40;99.90
22558;DHT22;11445;53.816;8.902;2022-09-01T15:13:15;22.50;99.90
22558;DHT22;11445;53.816;8.902;2022-09-01T15:15:41;22.60;99.90
22558;DHT22;11445;53.816;8.902;2022-09-01T15:18:10;22.60;99.90
22558;DHT22;11445;53.816;8.902;2022-09-01T15:20:40;22.80;99.90
22558;DHT22;11445;53.816;8.902;2022-09-01T15:23:14;22.90;99.90
22558;DHT22;11445;53.816;8.902;2022-09-01T15:25:41;23.00;99.90
22558;DHT22;11445;53.816;8.902;2022-09-01T15:28:08;22.90;99.90
22558;DHT22;11445;53.816;8.902;2022-09-01T15:30:35;22.80;99.90
22558;DHT22;11445;53.816;8.902;2022-09-01T15:33:04;22.70;99.90
22558;DHT22;11445;53.816;8.902;2022-09-01T15:35:31;22.60;99.90
22558;DHT22;11445;53.816;8.902;2022-09-01T15:37:59;22.50;99.90
22558;DHT22;11445;53.816;8.902;2022-09-01T15:40:27;22.40;99.90
22558;DHT22;11445;53.816;8.902;2022-09-01T15:42:55;22.30;99.90
22558;DHT22;11445;53.816;8.902;2022-09-01T15:45:24;22.20;99.90
22558;DHT22;11445;53.816;8.902;2022-09-01T15:47:52;22.10;99.90
22558;DHT22;11445;53.816;8.902;2022-09-01T15:50:21;21.90;99.90
22558;DHT22;11445;53.816;8.902;2022-09-01T15:52:50;21.90;99.90